createdAt,value
2023-03-15T00:01:31.503Z,3.07
2023-03-15T00:04:00.463Z,3.06
2023-03-15T00:06:29.677Z,3.04
2023-03-15T00:08:58.790Z,3.02
2023-03-15T00:11:31.386Z,3.01
2023-03-15T00:14:01.603Z,2.98
2023-03-15T00:16:33.318Z,2.96
2023-03-15T00:19:03.586Z,2.92
2023-03-15T00:21:33.441Z,2.91
2023-03-15T00:24:02.433Z,2.89
2023-03-15T00:26:32.220Z,2.87
2023-03-15T00:29:01.465Z,2.85
2023-03-15T00:31:33.723Z,2.83
2023-03-15T00:34:02.853Z,2.80
2023-03-15T00:36:32.749Z,2.78
2023-03-15T00:39:02.345Z,2.74
2023-03-15T00:41:32.758Z,2.70
2023-03-15T00:44:06.993Z,2.69
2023-03-15T00:46:36.450Z,2.67
2023-03-15T00:49:05.744Z,2.66
2023-03-15T00:51:35.632Z,2.65
2023-03-15T00:54:04.565Z,2.64
2023-03-15T00:56:38.069Z,2.62
2023-03-15T00:59:07.606Z,2.59
2023-03-15T01:01:36.817Z,2.58
2023-03-15T01:04:07.158Z,2.54
2023-03-15T01:06:36.557Z,2.52
2023-03-15T01:09:06.241Z,2.51
2023-03-15T01:11:37.877Z,2.50
2023-03-15T01:14:09.387Z,2.48
2023-03-15T01:16:41.154Z,2.48
2023-03-15T01:19:14.628Z,2.49
2023-03-15T01:21:44.785Z,2.50
2023-03-15T01:24:14.873Z,2.50
2023-03-15T01:26:43.644Z,2.51
2023-03-15T01:29:14.077Z,2.52
2023-03-15T01:31:46.805Z,2.53
2023-03-15T01:34:17.102Z,2.54
2023-03-15T01:36:52.896Z,2.55
2023-03-15T01:39:23.721Z,2.54
2023-03-15T01:41:52.546Z,2.52
2023-03-15T01:44:22.493Z,2.50
2023-03-15T01:46:51.529Z,2.49
2023-03-15T01:49:30.316Z,2.47
2023-03-15T01:52:06.622Z,2.44
2023-03-15T01:55:05.876Z,2.41
2023-03-15T01:57:39.426Z,2.38
2023-03-15T02:00:15.839Z,2.35
2023-03-15T02:03:05.367Z,2.31
2023-03-15T02:05:37.611Z,2.28
2023-03-15T02:08:08.556Z,2.26
2023-03-15T02:10:52.217Z,2.24
2023-03-15T02:13:23.945Z,2.21
2023-03-15T02:15:53.997Z,2.18
2023-03-15T02:18:39.778Z,2.16
2023-03-15T02:21:25.227Z,2.13
2023-03-15T02:24:33.632Z,2.09
2023-03-15T02:27:02.906Z,2.06
2023-03-15T02:29:32.107Z,2.03
2023-03-15T02:32:06.283Z,2.00
2023-03-15T02:34:36.467Z,1.95
2023-03-15T02:37:05.399Z,1.92
2023-03-15T02:39:34.459Z,1.88
2023-03-15T02:42:03.479Z,1.85
2023-03-15T02:44:38.597Z,1.81
2023-03-15T02:47:20.939Z,1.78
2023-03-15T02:49:51.444Z,1.76
2023-03-15T02:52:21.629Z,1.73
2023-03-15T02:54:50.776Z,1.70
2023-03-15T02:57:20.914Z,1.64
2023-03-15T02:59:51.242Z,1.60
2023-03-15T03:02:26.464Z,1.55
2023-03-15T03:04:55.567Z,1.50
2023-03-15T03:07:24.273Z,1.46
2023-03-15T03:09:59.429Z,1.43
2023-03-15T03:12:29.368Z,1.40
2023-03-15T03:15:04.127Z,1.35
2023-03-15T03:17:37.791Z,1.30
2023-03-15T03:20:12.069Z,1.27
2023-03-15T03:22:45.268Z,1.24
2023-03-15T03:25:14.771Z,1.21
2023-03-15T03:27:48.390Z,1.17
2023-03-15T03:30:17.970Z,1.13
2023-03-15T03:32:51.293Z,1.09
2023-03-15T03:35:21.784Z,1.03
2023-03-15T03:37:54.218Z,0.99
2023-03-15T03:40:36.124Z,0.96
2023-03-15T03:43:07.894Z,0.93
2023-03-15T03:45:36.852Z,0.90
2023-03-15T03:48:07.187Z,0.87
2023-03-15T03:50:36.306Z,0.86
2023-03-15T03:53:06.951Z,0.83
2023-03-15T03:55:38.455Z,0.80
2023-03-15T03:58:10.204Z,0.78
2023-03-15T04:00:46.703Z,0.75
2023-03-15T04:03:15.763Z,0.72
2023-03-15T04:05:49.043Z,0.69
2023-03-15T04:08:23.265Z,0.67
2023-03-15T04:10:57.453Z,0.65
2023-03-15T04:13:30.378Z,0.62
2023-03-15T04:16:04.177Z,0.57
2023-03-15T04:18:45.063Z,0.52
2023-03-15T04:21:14.570Z,0.46
2023-03-15T04:23:45.653Z,0.43
2023-03-15T04:26:20.487Z,0.41
2023-03-15T04:28:59.749Z,0.37
2023-03-15T04:32:02.132Z,0.36
2023-03-15T04:34:51.668Z,0.35
2023-03-15T04:37:50.579Z,0.35
2023-03-15T04:40:38.924Z,0.37
2023-03-15T04:43:26.707Z,0.40
2023-03-15T04:46:11.298Z,0.43
2023-03-15T04:48:58.890Z,0.47
2023-03-15T04:51:56.769Z,0.56
2023-03-15T04:54:35.479Z,0.69
2023-03-15T04:57:23.117Z,0.84
2023-03-15T05:00:08.080Z,1.00
2023-03-15T05:02:56.249Z,1.17
2023-03-15T05:05:34.677Z,1.32
2023-03-15T05:08:39.977Z,1.48
2023-03-15T05:11:18.996Z,1.59
2023-03-15T05:13:55.837Z,1.69
2023-03-15T05:16:35.729Z,1.78
2023-03-15T05:19:28.841Z,1.87
2023-03-15T05:22:09.711Z,1.97
2023-03-15T05:24:46.652Z,2.08
2023-03-15T05:27:35.491Z,2.21
2023-03-15T05:30:23.819Z,2.34
2023-03-15T05:33:07.106Z,2.46
2023-03-15T05:35:49.267Z,2.56
2023-03-15T05:38:35.579Z,2.67
2023-03-15T05:41:25.189Z,2.79
2023-03-15T05:44:17.271Z,2.92
2023-03-15T05:47:19.070Z,3.01
2023-03-15T05:50:03.989Z,3.07
2023-03-15T05:52:57.634Z,3.14
2023-03-15T05:55:37.521Z,3.24
2023-03-15T05:58:20.862Z,3.32
2023-03-15T06:01:21.569Z,3.43
2023-03-15T06:04:15.721Z,3.52
2023-03-15T06:06:45.650Z,3.57
2023-03-15T06:09:14.777Z,3.63
2023-03-15T06:11:45.856Z,3.71
2023-03-15T06:14:14.916Z,3.77
2023-03-15T06:16:54.034Z,3.86
2023-03-15T06:19:25.166Z,3.96
2023-03-15T06:21:55.714Z,4.02
2023-03-15T06:24:32.973Z,4.05
2023-03-15T06:27:02.062Z,4.08
2023-03-15T06:29:31.099Z,4.10
2023-03-15T06:32:01.234Z,4.10
2023-03-15T06:34:30.895Z,4.07
2023-03-15T06:37:01.759Z,4.06
2023-03-15T06:39:34.925Z,4.09
2023-03-15T06:42:05.425Z,4.12
2023-03-15T06:44:35.853Z,4.20
2023-03-15T06:47:08.708Z,4.35
2023-03-15T06:49:41.639Z,4.51
2023-03-15T06:52:12.127Z,4.65
2023-03-15T06:54:41.232Z,4.77
2023-03-15T06:57:10.306Z,4.88
2023-03-15T06:59:40.024Z,4.99
2023-03-15T07:02:19.166Z,5.07
2023-03-15T07:04:48.599Z,5.17
2023-03-15T07:07:23.094Z,5.29
2023-03-15T07:09:52.984Z,5.47
2023-03-15T07:12:23.343Z,5.62
2023-03-15T07:14:54.944Z,5.73
2023-03-15T07:17:23.964Z,5.83
2023-03-15T07:19:56.673Z,5.85
2023-03-15T07:22:27.159Z,5.93
2023-03-15T07:24:56.145Z,6.01
2023-03-15T07:27:25.923Z,6.09
2023-03-15T07:29:56.064Z,6.12
2023-03-15T07:32:25.531Z,6.12
2023-03-15T07:34:58.793Z,6.13
2023-03-15T07:37:29.807Z,6.19
2023-03-15T07:40:01.076Z,6.29
2023-03-15T07:42:30.298Z,6.50
2023-03-15T07:45:01.291Z,6.83
2023-03-15T07:47:33.988Z,7.17
2023-03-15T07:50:05.895Z,7.47
2023-03-15T07:52:34.980Z,7.71
2023-03-15T07:55:08.907Z,7.93
2023-03-15T07:57:38.378Z,8.14
2023-03-15T08:00:14.159Z,8.30
2023-03-15T08:02:43.705Z,8.36
2023-03-15T08:05:12.780Z,8.49
2023-03-15T08:07:42.997Z,8.62
2023-03-15T08:10:12.620Z,8.62
2023-03-15T08:12:44.817Z,8.57
2023-03-15T08:15:14.319Z,8.53
2023-03-15T08:17:44.689Z,8.51
2023-03-15T08:20:18.241Z,8.53
2023-03-15T08:22:49.380Z,8.53
2023-03-15T08:25:20.861Z,8.60
2023-03-15T08:27:50.601Z,8.68
2023-03-15T08:30:21.464Z,8.67
2023-03-15T08:32:53.048Z,8.67
2023-03-15T08:35:25.342Z,8.72
2023-03-15T08:37:57.696Z,8.76
2023-03-15T08:40:26.953Z,8.82
2023-03-15T08:42:56.793Z,8.90
2023-03-15T08:45:26.998Z,9.04
2023-03-15T08:47:59.487Z,9.18
2023-03-15T08:50:35.272Z,9.34
2023-03-15T08:53:05.046Z,9.49
2023-03-15T08:55:34.351Z,9.61
2023-03-15T08:58:04.922Z,9.65
2023-03-15T09:00:34.656Z,9.62
2023-03-15T09:03:04.294Z,9.63
2023-03-15T09:05:33.320Z,9.64
2023-03-15T09:08:02.591Z,9.66
2023-03-15T09:10:32.202Z,9.68
2023-03-15T09:13:01.239Z,9.70
2023-03-15T09:15:30.977Z,9.78
2023-03-15T09:18:00.206Z,9.80
2023-03-15T09:20:30.090Z,9.80
2023-03-15T09:23:01.750Z,9.82
2023-03-15T09:25:31.777Z,9.84
2023-03-15T09:28:00.964Z,9.84
2023-03-15T09:30:30.918Z,9.86
2023-03-15T09:33:01.275Z,9.86
2023-03-15T09:35:30.588Z,9.86
2023-03-15T09:38:01.146Z,9.85
2023-03-15T09:40:35.137Z,9.83
2023-03-15T09:43:15.510Z,9.84
2023-03-15T09:46:03.474Z,9.87
2023-03-15T09:48:44.940Z,9.86
2023-03-15T09:51:56.150Z,9.81
2023-03-15T09:54:41.685Z,9.71
2023-03-15T09:57:24.443Z,9.65
2023-03-15T09:59:58.049Z,9.58
2023-03-15T10:02:31.078Z,9.53
2023-03-15T10:05:27.930Z,9.45
2023-03-15T10:07:57.133Z,9.37
2023-03-15T10:10:32.693Z,9.30
2023-03-15T10:13:09.965Z,9.27
2023-03-15T10:15:39.351Z,9.30
2023-03-15T10:18:27.366Z,9.31
2023-03-15T10:21:39.742Z,9.39
2023-03-15T10:24:40.387Z,9.48
2023-03-15T10:27:17.307Z,9.56
2023-03-15T10:29:46.244Z,9.57
2023-03-15T10:32:18.383Z,9.57
2023-03-15T10:34:52.646Z,9.63
2023-03-15T10:37:25.436Z,9.67
2023-03-15T10:39:59.220Z,9.76
2023-03-15T10:42:32.882Z,9.82
2023-03-15T10:45:21.586Z,9.85
2023-03-15T10:47:59.565Z,9.89
2023-03-15T10:50:35.672Z,9.93
2023-03-15T10:53:11.519Z,9.95
2023-03-15T10:55:45.308Z,9.99
2023-03-15T10:58:28.933Z,10.05
2023-03-15T11:01:08.089Z,10.16
2023-03-15T11:03:38.569Z,10.24
2023-03-15T11:06:26.845Z,10.32
2023-03-15T11:09:12.296Z,10.46
2023-03-15T11:12:04.940Z,10.57
2023-03-15T11:14:41.429Z,10.62
2023-03-15T11:17:18.661Z,10.62
2023-03-15T11:20:10.497Z,10.67
2023-03-15T11:22:48.215Z,10.70
2023-03-15T11:25:17.691Z,10.68
2023-03-15T11:27:51.571Z,10.67
2023-03-15T11:30:24.470Z,10.69
2023-03-15T11:32:54.222Z,10.71
2023-03-15T11:35:34.140Z,10.71
2023-03-15T11:38:15.701Z,10.70
2023-03-15T11:40:48.576Z,10.71
2023-03-15T11:43:28.472Z,10.73
2023-03-15T11:45:59.934Z,10.76
2023-03-15T11:48:51.239Z,10.76
2023-03-15T11:51:21.244Z,10.72
2023-03-15T11:54:15.530Z,10.65
2023-03-15T11:56:58.542Z,10.54
2023-03-15T11:59:30.834Z,10.45
2023-03-15T12:02:06.882Z,10.41
2023-03-15T12:04:35.937Z,10.37
2023-03-15T12:07:16.732Z,10.37
2023-03-15T12:09:53.209Z,10.42
2023-03-15T12:12:26.235Z,10.48
2023-03-15T12:15:20.232Z,10.56
2023-03-15T12:18:00.936Z,10.68
2023-03-15T12:20:50.819Z,10.76
2023-03-15T12:23:20.095Z,10.83
2023-03-15T12:26:07.888Z,10.86
2023-03-15T12:28:50.266Z,10.90
2023-03-15T12:31:19.364Z,10.91
2023-03-15T12:33:51.840Z,10.91
2023-03-15T12:36:39.986Z,10.90
2023-03-15T12:39:18.583Z,10.85
2023-03-15T12:41:49.416Z,10.79
2023-03-15T12:44:34.252Z,10.75
2023-03-15T12:47:04.710Z,10.73
2023-03-15T12:49:36.388Z,10.68
2023-03-15T12:52:11.380Z,10.64
2023-03-15T12:55:12.358Z,10.60
2023-03-15T12:57:50.149Z,10.60
2023-03-15T13:00:23.166Z,10.61
2023-03-15T13:03:22.746Z,10.63
2023-03-15T13:06:03.765Z,10.63
2023-03-15T13:08:40.114Z,10.64
2023-03-15T13:11:19.735Z,10.61
2023-03-15T13:13:52.517Z,10.63
2023-03-15T13:16:40.492Z,10.63
2023-03-15T13:19:14.769Z,10.60
2023-03-15T13:22:15.854Z,10.55
2023-03-15T13:25:05.583Z,10.47
2023-03-15T13:27:51.492Z,10.43
2023-03-15T13:30:46.783Z,10.41
2023-03-15T13:33:22.796Z,10.37
2023-03-15T13:36:07.422Z,10.34
2023-03-15T13:38:47.482Z,10.36
2023-03-15T13:41:26.072Z,10.39
2023-03-15T13:43:57.110Z,10.40
2023-03-15T13:46:27.493Z,10.40
2023-03-15T13:48:56.803Z,10.41
2023-03-15T13:51:36.604Z,10.39
2023-03-15T13:54:08.452Z,10.38
2023-03-15T13:56:49.887Z,10.33
2023-03-15T13:59:19.183Z,10.24
2023-03-15T14:01:49.339Z,10.21
2023-03-15T14:04:21.588Z,10.20
2023-03-15T14:06:51.323Z,10.20
2023-03-15T14:09:24.701Z,10.20
2023-03-15T14:12:07.844Z,10.19
2023-03-15T14:14:49.619Z,10.15
2023-03-15T14:17:29.674Z,10.08
2023-03-15T14:20:09.328Z,10.02
2023-03-15T14:22:42.054Z,10.03
2023-03-15T14:25:21.737Z,10.01
2023-03-15T14:27:50.923Z,9.96
2023-03-15T14:30:24.723Z,9.90
2023-03-15T14:32:55.651Z,9.88
2023-03-15T14:35:26.605Z,9.88
2023-03-15T14:38:04.469Z,9.83
2023-03-15T14:40:36.183Z,9.79
2023-03-15T14:43:06.911Z,9.75
2023-03-15T14:45:37.142Z,9.73
2023-03-15T14:48:15.382Z,9.70
2023-03-15T14:50:45.352Z,9.63
2023-03-15T14:53:17.141Z,9.58
2023-03-15T14:55:49.592Z,9.51
2023-03-15T14:58:21.110Z,9.46
2023-03-15T15:00:51.836Z,9.41
2023-03-15T15:03:34.361Z,9.30
2023-03-15T15:06:03.503Z,9.15
2023-03-15T15:08:33.045Z,9.03
2023-03-15T15:11:03.174Z,8.88
2023-03-15T15:13:38.135Z,8.75
2023-03-15T15:16:08.004Z,8.61
2023-03-15T15:18:37.303Z,8.49
2023-03-15T15:21:13.445Z,8.37
2023-03-15T15:23:57.322Z,8.27
2023-03-15T15:26:30.412Z,8.15
2023-03-15T15:29:01.219Z,8.07
2023-03-15T15:31:34.602Z,7.97
2023-03-15T15:34:04.751Z,7.87
2023-03-15T15:36:35.526Z,7.77
2023-03-15T15:39:07.211Z,7.66
2023-03-15T15:41:36.174Z,7.57
2023-03-15T15:44:15.211Z,7.47
2023-03-15T15:46:44.017Z,7.39
2023-03-15T15:49:13.165Z,7.31
2023-03-15T15:51:46.755Z,7.23
2023-03-15T15:54:25.471Z,7.15
2023-03-15T15:56:58.855Z,7.07
2023-03-15T15:59:28.343Z,7.00
2023-03-15T16:02:02.212Z,6.93
2023-03-15T16:04:33.329Z,6.86
2023-03-15T16:07:02.892Z,6.82
2023-03-15T16:09:34.012Z,6.76
2023-03-15T16:12:03.622Z,6.69
2023-03-15T16:14:34.402Z,6.64
2023-03-15T16:17:03.426Z,6.59
2023-03-15T16:19:32.326Z,6.54
2023-03-15T16:22:01.196Z,6.51
2023-03-15T16:24:31.581Z,6.48
2023-03-15T16:27:03.856Z,6.45
2023-03-15T16:29:44.605Z,6.43
2023-03-15T16:32:19.299Z,6.41
2023-03-15T16:34:53.737Z,6.39
2023-03-15T16:37:42.088Z,6.40
2023-03-15T16:40:34.296Z,6.41
2023-03-15T16:43:09.011Z,6.44
2023-03-15T16:45:37.963Z,6.44
2023-03-15T16:48:09.317Z,6.46
2023-03-15T16:50:38.619Z,6.48
2023-03-15T16:53:08.205Z,6.49
2023-03-15T16:55:37.683Z,6.49
2023-03-15T16:58:18.195Z,6.48
2023-03-15T17:00:48.658Z,6.48
2023-03-15T17:03:17.964Z,6.45
2023-03-15T17:05:47.974Z,6.43
2023-03-15T17:08:20.061Z,6.41
2023-03-15T17:10:49.566Z,6.37
2023-03-15T17:13:26.920Z,6.33
2023-03-15T17:15:55.909Z,6.28
2023-03-15T17:18:24.951Z,6.22
2023-03-15T17:20:55.967Z,6.17
2023-03-15T17:23:25.683Z,6.12
2023-03-15T17:25:54.409Z,6.09
2023-03-15T17:28:24.573Z,6.05
2023-03-15T17:30:59.813Z,6.01
2023-03-15T17:33:38.955Z,5.97
2023-03-15T17:36:11.814Z,5.95
2023-03-15T17:38:43.964Z,5.92
2023-03-15T17:41:30.339Z,5.89
2023-03-15T17:44:00.139Z,5.85
2023-03-15T17:46:30.367Z,5.80
2023-03-15T17:49:01.043Z,5.75
2023-03-15T17:51:32.284Z,5.70
2023-03-15T17:54:01.726Z,5.66
2023-03-15T17:56:30.685Z,5.63
2023-03-15T17:58:59.660Z,5.60
2023-03-15T18:01:28.829Z,5.58
2023-03-15T18:04:06.374Z,5.57
2023-03-15T18:06:35.694Z,5.57
2023-03-15T18:09:09.790Z,5.57
2023-03-15T18:11:42.792Z,5.57
2023-03-15T18:14:15.388Z,5.57
2023-03-15T18:16:50.490Z,5.56
2023-03-15T18:19:19.440Z,5.56
2023-03-15T18:21:48.222Z,5.55
2023-03-15T18:24:18.103Z,5.55
2023-03-15T18:26:48.450Z,5.53
2023-03-15T18:29:17.164Z,5.52
2023-03-15T18:31:46.367Z,5.50
2023-03-15T18:34:22.303Z,5.48
2023-03-15T18:36:53.465Z,5.46
2023-03-15T18:39:25.471Z,5.44
2023-03-15T18:41:54.290Z,5.41
2023-03-15T18:44:23.304Z,5.39
2023-03-15T18:46:52.126Z,5.37
2023-03-15T18:49:21.673Z,5.36
2023-03-15T18:51:50.576Z,5.33
2023-03-15T18:54:25.625Z,5.31
2023-03-15T18:56:55.098Z,5.29
2023-03-15T18:59:25.838Z,5.25
2023-03-15T19:01:54.981Z,5.22
2023-03-15T19:04:24.257Z,5.18
2023-03-15T19:06:57.602Z,5.14
2023-03-15T19:09:26.605Z,5.10
2023-03-15T19:11:55.465Z,5.06
2023-03-15T19:14:31.361Z,5.00
2023-03-15T19:17:00.728Z,4.97
2023-03-15T19:19:30.105Z,4.94
2023-03-15T19:21:59.209Z,4.90
2023-03-15T19:24:29.180Z,4.87
2023-03-15T19:26:57.926Z,4.86
2023-03-15T19:29:26.664Z,4.84
2023-03-15T19:31:56.609Z,4.81
2023-03-15T19:34:34.194Z,4.77
2023-03-15T19:37:03.736Z,4.75
2023-03-15T19:39:32.643Z,4.72
2023-03-15T19:42:04.691Z,4.69
2023-03-15T19:44:33.847Z,4.67
2023-03-15T19:47:09.074Z,4.65
2023-03-15T19:49:38.232Z,4.63
2023-03-15T19:52:07.216Z,4.61
2023-03-15T19:54:36.610Z,4.61
2023-03-15T19:57:05.410Z,4.60
2023-03-15T19:59:40.392Z,4.59
2023-03-15T20:02:13.365Z,4.58
2023-03-15T20:04:46.056Z,4.55
2023-03-15T20:07:15.360Z,4.52
2023-03-15T20:09:44.573Z,4.50
2023-03-15T20:12:17.569Z,4.47
2023-03-15T20:14:46.594Z,4.46
2023-03-15T20:17:16.249Z,4.45
2023-03-15T20:19:47.769Z,4.44
2023-03-15T20:22:16.871Z,4.43
2023-03-15T20:24:46.033Z,4.40
2023-03-15T20:27:17.047Z,4.39
2023-03-15T20:29:45.868Z,4.37
2023-03-15T20:32:15.561Z,4.36
2023-03-15T20:34:44.545Z,4.35
2023-03-15T20:37:13.935Z,4.36
2023-03-15T20:39:43.948Z,4.36
2023-03-15T20:42:13.195Z,4.36
2023-03-15T20:44:43.170Z,4.36
2023-03-15T20:47:12.127Z,4.34
2023-03-15T20:49:49.413Z,4.33
2023-03-15T20:52:18.146Z,4.31
2023-03-15T20:54:46.980Z,4.28
2023-03-15T20:57:15.697Z,4.26
2023-03-15T20:59:44.506Z,4.21
2023-03-15T21:02:14.945Z,4.18
2023-03-15T21:04:44.929Z,4.14
2023-03-15T21:07:20.266Z,4.11
2023-03-15T21:09:50.701Z,4.07
2023-03-15T21:12:20.329Z,4.03
2023-03-15T21:14:49.939Z,4.00
2023-03-15T21:17:20.613Z,3.96
2023-03-15T21:19:49.716Z,3.92
2023-03-15T21:22:20.364Z,3.88
2023-03-15T21:24:55.923Z,3.84
2023-03-15T21:27:26.545Z,3.80
2023-03-15T21:29:57.593Z,3.77
2023-03-15T21:32:26.636Z,3.74
2023-03-15T21:34:57.567Z,3.71
2023-03-15T21:37:26.475Z,3.69
2023-03-15T21:39:55.448Z,3.66
2023-03-15T21:42:25.435Z,3.64
2023-03-15T21:44:54.183Z,3.61
2023-03-15T21:47:26.349Z,3.61
2023-03-15T21:49:56.082Z,3.62
2023-03-15T21:52:26.640Z,3.65
2023-03-15T21:54:59.218Z,3.68
2023-03-15T21:57:28.227Z,3.71
2023-03-15T21:59:58.595Z,3.75
2023-03-15T22:02:27.598Z,3.81
2023-03-15T22:04:57.135Z,3.86
2023-03-15T22:07:26.194Z,3.92
2023-03-15T22:09:55.134Z,3.98
2023-03-15T22:12:27.682Z,4.04
2023-03-15T22:15:05.576Z,4.11
2023-03-15T22:17:36.432Z,4.18
2023-03-15T22:20:17.341Z,4.23
2023-03-15T22:22:48.294Z,4.30
2023-03-15T22:25:17.533Z,4.35
2023-03-15T22:27:48.130Z,4.40
2023-03-15T22:30:19.330Z,4.45
2023-03-15T22:32:51.036Z,4.49
2023-03-15T22:35:20.915Z,4.53
2023-03-15T22:37:50.229Z,4.57
2023-03-15T22:40:19.670Z,4.61
2023-03-15T22:42:51.273Z,4.64
2023-03-15T22:45:21.174Z,4.67
2023-03-15T22:47:51.655Z,4.69
2023-03-15T22:50:22.363Z,4.70
2023-03-15T22:52:56.028Z,4.72
2023-03-15T22:55:25.380Z,4.73
2023-03-15T22:57:54.610Z,4.75
2023-03-15T23:00:24.220Z,4.78
2023-03-15T23:02:55.202Z,4.78
2023-03-15T23:05:24.448Z,4.79
2023-03-15T23:07:53.519Z,4.80
2023-03-15T23:10:22.721Z,4.79
2023-03-15T23:12:52.350Z,4.79
2023-03-15T23:15:21.553Z,4.81
2023-03-15T23:17:51.222Z,4.84
2023-03-15T23:20:20.867Z,4.87
2023-03-15T23:22:53.419Z,4.89
2023-03-15T23:25:22.951Z,4.92
2023-03-15T23:27:52.120Z,4.96
2023-03-15T23:30:21.581Z,4.98
2023-03-15T23:32:53.489Z,5.00
2023-03-15T23:35:27.147Z,5.00
2023-03-15T23:37:56.974Z,4.98
2023-03-15T23:40:26.502Z,4.97
2023-03-15T23:43:01.239Z,4.96
2023-03-15T23:45:30.705Z,4.94
2023-03-15T23:48:06.512Z,4.89
2023-03-15T23:50:38.047Z,4.87
2023-03-15T23:53:07.206Z,4.85
2023-03-15T23:55:36.722Z,4.84
2023-03-15T23:58:07.296Z,4.80
